Time;durP1;ratioP1;P1;durP2;ratioP2;P2;SDS_P1;SDS_P2;PMS_P1;PMS_P2;Temp;Humidity;BMP_temperature;BMP_pressure;BME280_temperature;BME280_humidity;BME280_pressure;Samples;Min_cycle;Max_cycle;Signal;HPM_P1;HPM_P2
2022/07/30 00:01:18;;;;;;;35.78;33.28;;;;;;;22.33;100.00;100974.59;5040476;28;20165;-89
2022/07/30 00:03:49;;;;;;;40.75;38.42;;;;;;;22.29;100.00;100971.66;5057470;28;20076;-89
2022/07/30 00:06:20;;;;;;;42.83;40.15;;;;;;;22.48;100.00;100979.13;5066364;28;20045;-89
2022/07/30 00:08:53;;;;;;;39.13;36.85;;;;;;;22.33;100.00;100969.19;5062039;28;20055;-89
2022/07/30 00:11:20;;;;;;;;;;;;;;;21.99;100.00;100972.56;5065797;28;20052;-89
2022/07/30 00:13:50;;;;;;;39.92;37.53;;;;;;;22.03;100.00;100973.66;5064452;28;20267;-89
2022/07/30 00:16:24;;;;;;;38.83;36.30;;;;;;;21.86;100.00;100976.66;5066585;28;20052;-89
2022/07/30 00:18:53;;;;;;;42.97;40.47;;;;;;;22.19;100.00;100982.53;5059975;28;20476;-89
2022/07/30 00:21:25;;;;;;;33.03;30.88;;;;;;;21.99;100.00;100974.47;5059400;28;20053;-88
2022/07/30 00:23:59;;;;;;;37.22;34.67;;;;;;;21.90;100.00;100976.91;5062742;28;20424;-89
2022/07/30 00:26:27;;;;;;;36.00;33.78;;;;;;;21.68;100.00;100978.06;5061881;28;20049;-89
2022/07/30 00:28:59;;;;;;;37.00;34.22;;;;;;;21.71;100.00;100972.09;5067959;28;20453;-89
2022/07/30 00:31:29;;;;;;;40.17;37.80;;;;;;;22.02;100.00;100977.41;5066789;28;20087;-89
2022/07/30 00:34:01;;;;;;;39.00;36.90;;;;;;;21.70;100.00;100980.50;5057460;28;20044;-89
2022/07/30 00:36:30;;;;;;;39.95;37.42;;;;;;;21.58;100.00;100972.69;5066008;28;20073;-89
2022/07/30 00:39:06;;;;;;;50.97;48.13;;;;;;;21.11;100.00;100976.47;5059558;28;20071;-89
2022/07/30 00:41:33;;;;;;;48.83;45.65;;;;;;;21.59;100.00;100981.59;5071348;28;20468;-89
2022/07/30 00:44:02;;;;;;;40.13;37.67;;;;;;;22.24;100.00;100969.00;5061777;28;20045;-89
2022/07/30 00:46:34;;;;;;;41.28;38.85;;;;;;;22.41;100.00;100966.72;5063294;28;20514;-89
2022/07/30 00:51:42;;;;;;;42.65;40.25;;;;;;;22.41;100.00;100964.00;5057946;28;20053;-89
2022/07/30 00:57:00;;;;;;;36.75;34.65;;;;;;;22.63;100.00;100974.47;5063696;28;20407;-87
2022/07/30 00:59:27;;;;;;;37.72;34.92;;;;;;;22.54;100.00;100968.03;5060834;28;20056;-89
2022/07/30 01:01:55;;;;;;;38.05;35.55;;;;;;;22.62;100.00;100966.59;5062894;28;20052;-89
2022/07/30 01:04:22;;;;;;;34.97;32.88;;;;;;;22.69;100.00;100964.38;5064698;28;20045;-89
2022/07/30 01:06:50;;;;;;;38.33;35.83;;;;;;;22.69;100.00;100953.56;5071627;28;20052;-89
2022/07/30 01:09:29;;;;;;;56.25;53.35;;;;;;;22.74;100.00;100956.22;5067492;28;20040;-89
2022/07/30 01:11:56;;;;;;;38.25;35.90;;;;;;;22.75;100.00;100957.84;5071476;28;20040;-88
2022/07/30 01:14:23;;;;;;;40.55;37.95;;;;;;;22.80;100.00;100965.13;5071952;28;20044;-89
2022/07/30 01:16:51;;;;;;;43.85;41.45;;;;;;;22.56;100.00;100963.13;5071433;28;20582;-89
2022/07/30 01:22:19;;;;;;;42.75;40.17;;;;;;;22.35;100.00;100959.72;5046658;28;20047;-89
2022/07/30 01:24:56;;;;;;;46.72;44.03;;;;;;;22.46;100.00;100955.06;5070023;28;20603;-89
2022/07/30 01:27:28;;;;;;;38.83;36.55;;;;;;;22.31;100.00;100958.66;5066449;28;20083;-90
2022/07/30 01:30:02;;;;;;;41.25;38.58;;;;;;;22.31;100.00;100945.13;5072019;28;20055;-88
2022/07/30 01:32:36;;;;;;;38.08;35.67;;;;;;;22.39;100.00;100946.44;5070743;28;20048;-89
2022/07/30 01:35:06;;;;;;;38.28;35.75;;;;;;;22.32;100.00;100949.44;5058125;28;20067;-89
2022/07/30 01:37:35;;;;;;;44.75;42.03;;;;;;;22.73;100.00;100949.22;5060485;28;20052;-90
2022/07/30 01:40:10;;;;;;;69.75;64.57;;;;;;;22.47;100.00;100947.75;5068511;28;20080;-89
2022/07/30 01:42:42;;;;;;;39.33;36.83;;;;;;;22.21;100.00;100941.66;5063556;28;20049;-88
2022/07/30 01:45:12;;;;;;;40.97;38.57;;;;;;;22.09;100.00;100940.09;5054803;28;20044;-88
2022/07/30 01:47:55;;;;;;;40.05;37.75;;;;;;;22.75;100.00;100933.47;5063053;28;20306;-89
2022/07/30 01:50:27;;;;;;;35.60;33.28;;;;;;;22.24;100.00;100936.53;5065732;28;20391;-89
2022/07/30 01:53:07;;;;;;;38.38;35.85;;;;;;;22.12;100.00;100939.53;5060537;28;20400;-89
2022/07/30 01:55:50;;;;;;;36.47;34.28;;;;;;;22.10;100.00;100935.47;5065693;28;20049;-89
2022/07/30 01:58:23;;;;;;;34.20;31.55;;;;;;;21.81;100.00;100938.81;5058605;28;20052;-89
2022/07/30 02:00:51;;;;;;;36.47;33.88;;;;;;;21.68;100.00;100940.22;5164007;22;20059;-89
2022/07/30 02:03:21;;;;;;;36.25;33.90;;;;;;;21.70;100.00;100937.25;5066537;28;20053;-89
2022/07/30 02:05:53;;;;;;;34.65;32.45;;;;;;;21.60;100.00;100940.78;5064899;28;20076;-89
2022/07/30 02:08:35;;;;;;;37.65;35.22;;;;;;;21.67;100.00;100932.41;5070654;28;20127;-88
2022/07/30 02:11:15;;;;;;;41.90;39.47;;;;;;;21.63;100.00;100939.41;5071743;28;20059;-88
2022/07/30 02:13:57;;;;;;;34.70;31.98;;;;;;;21.71;100.00;100946.97;5071609;28;20094;-88
2022/07/30 02:16:31;;;;;;;43.35;40.60;;;;;;;20.93;100.00;100939.19;5071224;28;20049;-89
2022/07/30 02:19:07;;;;;;;35.15;32.75;;;;;;;20.87;100.00;100934.88;5071639;28;20052;-89
2022/07/30 02:21:48;;;;;;;34.17;31.75;;;;;;;20.86;100.00;100938.66;5071218;28;20059;-89
2022/07/30 02:24:20;;;;;;;42.55;39.60;;;;;;;20.31;100.00;100936.38;5068202;28;20102;-89
2022/07/30 02:26:52;;;;;;;37.22;34.63;;;;;;;20.94;100.00;100928.16;5071337;28;20098;-90
2022/07/30 02:29:25;;;;;;;39.15;36.45;;;;;;;20.59;100.00;100929.72;5069457;28;20484;-89
2022/07/30 02:32:00;;;;;;;43.63;40.70;;;;;;;20.60;100.00;100930.53;5064858;28;20060;-89
2022/07/30 02:34:35;;;;;;;40.42;37.53;;;;;;;20.18;100.00;100931.47;5055655;28;20503;-88
2022/07/30 02:37:07;;;;;;;40.92;38.33;;;;;;;20.45;100.00;100936.66;5069586;28;20049;-89
2022/07/30 02:39:43;;;;;;;39.05;36.35;;;;;;;20.52;100.00;100931.06;5071937;28;20551;-90
2022/07/30 02:42:21;;;;;;;43.95;40.78;;;;;;;20.29;100.00;100935.81;5071250;28;20054;-89
2022/07/30 02:44:58;;;;;;;44.60;41.60;;;;;;;19.97;100.00;100929.75;5071298;28;20056;-89
2022/07/30 02:47:27;;;;;;;42.53;39.50;;;;;;;20.18;100.00;100936.84;5067427;28;20075;-89
2022/07/30 02:49:56;;;;;;;39.03;36.13;;;;;;;20.83;100.00;100936.50;5071929;28;20041;-89
2022/07/30 02:52:27;;;;;;;39.22;36.53;;;;;;;20.37;100.00;100931.81;5072215;28;20094;-89
2022/07/30 02:55:16;;;;;;;36.83;34.17;;;;;;;20.02;100.00;100932.50;5071793;28;20098;-90
2022/07/30 02:57:47;;;;;;;35.83;32.78;;;;;;;19.64;100.00;100940.69;5070841;28;20059;-90
2022/07/30 03:00:24;;;;;;;34.55;31.85;;;;;;;19.91;100.00;100942.44;5070934;28;20048;-89
2022/07/30 03:02:52;;;;;;;34.80;31.85;;;;;;;20.12;100.00;100946.00;5071438;28;20161;-88
2022/07/30 03:05:21;;;;;;;35.78;33.08;;;;;;;20.17;100.00;100945.22;5071237;28;20040;-89
2022/07/30 03:07:49;;;;;;;34.97;32.25;;;;;;;19.84;100.00;100949.94;5071845;28;20049;-89
2022/07/30 03:10:21;;;;;;;35.72;33.13;;;;;;;19.84;100.00;100952.63;5070767;28;20458;-89
2022/07/30 03:12:58;;;;;;;32.08;29.42;;;;;;;20.34;100.00;100941.25;5071517;28;20040;-89
2022/07/30 03:18:31;;;;;;;32.35;30.15;;;;;;;20.63;100.00;100946.19;5066707;28;20060;-89
2022/07/30 03:21:00;;;;;;;30.58;28.30;;;;;;;20.41;100.00;100946.38;5071170;28;20048;-89
2022/07/30 03:23:44;;;;;;;30.40;28.10;;;;;;;20.50;100.00;100947.47;5071300;28;20044;-89
2022/07/30 03:26:14;;;;;;;31.08;28.65;;;;;;;20.55;100.00;100961.00;5069907;28;20049;-89
2022/07/30 03:28:43;;;;;;;33.08;30.35;;;;;;;21.06;100.00;100957.56;5070924;28;20044;-88
2022/07/30 03:31:15;;;;;;;32.60;30.00;;;;;;;20.30;100.00;100955.50;5071595;28;20056;-89
2022/07/30 03:33:49;;;;;;;33.03;30.73;;;;;;;20.78;100.00;100959.69;5071562;28;20052;-89
2022/07/30 03:36:17;;;;;;;32.90;30.15;;;;;;;20.48;100.00;100963.09;5063870;28;20568;-90
2022/07/30 03:38:48;;;;;;;34.80;32.03;;;;;;;20.92;100.00;100964.59;5070330;28;20094;-89
2022/07/30 03:41:16;;;;;;;32.65;30.00;;;;;;;20.77;100.00;100959.97;5070132;28;20044;-88
2022/07/30 03:43:44;;;;;;;32.72;30.00;;;;;;;20.60;100.00;100965.59;5069804;28;20040;-89
2022/07/30 03:46:13;;;;;;;32.53;29.70;;;;;;;20.99;100.00;100967.81;5065383;28;20045;-91
2022/07/30 03:48:41;;;;;;;33.60;31.10;;;;;;;21.05;100.00;100969.44;5072013;28;20044;-89
2022/07/30 03:51:09;;;;;;;33.25;30.50;;;;;;;21.19;100.00;100975.94;5070798;28;20057;-89
2022/07/30 03:53:37;;;;;;;34.30;31.98;;;;;;;21.16;100.00;100976.47;5071227;28;20056;-89
2022/07/30 03:56:04;;;;;;;33.15;30.35;;;;;;;20.97;100.00;100973.50;5070425;28;20044;-90
2022/07/30 03:58:31;;;;;;;34.50;31.67;;;;;;;21.10;100.00;100980.25;5071078;28;20044;-89
2022/07/30 04:00:58;;;;;;;33.97;31.60;;;;;;;21.32;100.00;100985.38;5074145;28;20060;-88
2022/07/30 04:03:26;;;;;;;34.70;32.28;;;;;;;21.38;100.00;100980.81;5074846;28;20481;-89
2022/07/30 04:05:53;;;;;;;34.85;32.10;;;;;;;21.37;100.00;100977.31;5073845;28;20044;-88
2022/07/30 04:08:20;;;;;;;33.60;30.85;;;;;;;21.58;100.00;100967.28;5074041;28;20047;-89
2022/07/30 04:10:47;;;;;;;33.00;30.55;;;;;;;21.54;100.00;100974.28;5074105;28;20468;-88
2022/07/30 04:13:14;;;;;;;32.60;30.30;;;;;;;21.53;100.00;100977.28;5073976;28;20122;-89
2022/07/30 04:16:02;;;;;;;33.63;30.90;;;;;;;21.47;100.00;100968.38;5073178;28;20432;-89
2022/07/30 04:18:38;;;;;;;35.58;32.90;;;;;;;21.70;100.00;100985.91;5074537;28;20566;-89
2022/07/30 04:21:08;;;;;;;36.15;33.20;;;;;;;21.87;100.00;100975.56;5073945;28;20059;-89
2022/07/30 04:23:36;;;;;;;34.55;31.75;;;;;;;21.75;100.00;100974.25;5073663;28;20044;-89
2022/07/30 04:26:03;;;;;;;35.45;32.58;;;;;;;21.86;100.00;100973.97;5073292;28;20052;-89
2022/07/30 04:28:30;;;;;;;33.38;30.67;;;;;;;21.89;100.00;100976.13;5073659;28;20501;-89
2022/07/30 04:30:57;;;;;;;34.10;31.52;;;;;;;22.18;100.00;100980.94;5073664;28;20060;-89
2022/07/30 04:33:23;;;;;;;35.00;32.13;;;;;;;21.86;100.00;100979.38;5074902;28;20055;-89
2022/07/30 04:35:52;;;;;;;34.58;31.98;;;;;;;22.01;100.00;100989.31;5073584;28;20048;-90
2022/07/30 04:38:20;;;;;;;35.38;32.75;;;;;;;22.12;100.00;100990.13;5073057;28;20045;-89
2022/07/30 04:40:47;;;;;;;35.50;32.70;;;;;;;22.46;100.00;100979.44;5073361;28;20067;-89
2022/07/30 04:43:13;;;;;;;34.10;31.70;;;;;;;22.53;100.00;100979.91;5073877;28;20044;-88
2022/07/30 04:45:41;;;;;;;34.80;31.58;;;;;;;22.57;100.00;100972.88;5073324;28;20052;-89
2022/07/30 04:48:08;;;;;;;34.85;31.95;;;;;;;22.76;100.00;100969.50;5073834;28;20044;-89
2022/07/30 04:50:38;;;;;;;33.72;31.02;;;;;;;22.97;100.00;100970.19;5073501;28;20153;-90
2022/07/30 04:53:07;;;;;;;34.35;31.60;;;;;;;23.08;100.00;100971.72;5072899;28;20510;-89
2022/07/30 04:55:35;;;;;;;36.00;33.20;;;;;;;23.04;100.00;100970.69;5072738;28;20076;-89
2022/07/30 04:58:04;;;;;;;36.25;33.35;;;;;;;23.60;100.00;100969.34;5073018;28;20053;-89
2022/07/30 05:00:34;;;;;;;36.28;32.58;;;;;;;23.75;100.00;100966.50;5070735;28;20053;-89
2022/07/30 05:03:03;;;;;;;35.45;32.50;;;;;;;23.72;100.00;100969.78;5073522;28;20047;-89
2022/07/30 05:05:31;;;;;;;38.25;35.15;;;;;;;23.77;100.00;100972.44;5072793;28;20100;-90
2022/07/30 05:08:00;;;;;;;36.80;33.80;;;;;;;23.87;100.00;100966.09;5072950;28;20044;-88
2022/07/30 05:10:29;;;;;;;36.08;33.17;;;;;;;23.78;100.00;100965.91;5072704;28;20059;-88
2022/07/30 05:12:55;;;;;;;36.63;33.83;;;;;;;23.67;100.00;100970.63;5073010;28;20124;-89
2022/07/30 05:15:22;;;;;;;36.55;33.58;;;;;;;24.02;100.00;100965.91;5072354;28;20052;-90
2022/07/30 05:17:50;;;;;;;35.58;32.78;;;;;;;23.95;100.00;100966.28;5073518;28;20051;-89
2022/07/30 05:20:17;;;;;;;36.65;33.70;;;;;;;24.29;100.00;100978.06;5072467;28;20139;-90
2022/07/30 05:22:44;;;;;;;37.03;32.67;;;;;;;24.41;100.00;100970.31;5072226;28;20044;-90
2022/07/30 05:25:10;;;;;;;36.08;32.88;;;;;;;24.79;100.00;100965.72;5072680;28;20036;-90
2022/07/30 05:27:38;;;;;;;35.42;32.72;;;;;;;24.76;100.00;100960.88;5072456;28;20056;-90
2022/07/30 05:30:07;;;;;;;36.17;33.47;;;;;;;24.71;100.00;100963.66;5072080;28;20513;-90
2022/07/30 05:32:33;;;;;;;35.30;32.80;;;;;;;24.78;100.00;100957.84;5070007;28;20047;-89
2022/07/30 05:35:00;;;;;;;36.00;33.35;;;;;;;24.92;100.00;100967.66;5072110;28;20048;-90
2022/07/30 05:37:27;;;;;;;34.78;32.20;;;;;;;24.75;100.00;100964.69;5072468;28;20056;-89
2022/07/30 05:39:54;;;;;;;34.38;31.85;;;;;;;24.78;100.00;100963.28;5071785;28;20421;-89
2022/07/30 05:42:21;;;;;;;35.83;33.00;;;;;;;24.81;100.00;100963.53;5072690;28;20052;-89
2022/07/30 05:44:49;;;;;;;35.70;32.92;;;;;;;25.27;100.00;100964.72;5071991;28;20052;-90
2022/07/30 05:47:19;;;;;;;33.50;30.90;;;;;;;25.39;100.00;100956.88;5067879;28;20505;-89
2022/07/30 05:49:46;;;;;;;33.50;30.92;;;;;;;25.73;100.00;100964.66;5072693;28;20045;-89
2022/07/30 05:52:13;;;;;;;34.00;31.45;;;;;;;25.72;100.00;100963.06;5072294;28;20040;-90
2022/07/30 05:54:40;;;;;;;34.97;31.23;;;;;;;25.59;100.00;100963.84;5071516;28;20523;-89
2022/07/30 06:08:32;;;;;;;32.25;29.52;;;;;;;26.60;100.00;100968.34;4762346;27;10002059;-80
2022/07/30 06:10:59;;;;;;;31.52;28.92;;;;;;;26.63;100.00;100969.63;5106172;28;20062;-80
2022/07/30 06:13:26;;;;;;;32.22;29.50;;;;;;;26.53;100.00;100967.94;5107734;28;20689;-80
2022/07/30 06:15:53;;;;;;;32.97;30.38;;;;;;;26.71;100.00;100971.59;5112641;28;20605;-79
2022/07/30 06:18:20;;;;;;;33.65;31.05;;;;;;;26.62;100.00;100979.69;5103435;27;20472;-80
2022/07/30 06:20:50;;;;;;;32.95;30.45;;;;;;;26.42;100.00;100961.88;5112993;28;20043;-78
2022/07/30 06:23:17;;;;;;;32.42;30.05;;;;;;;26.60;100.00;100962.88;5111498;28;20130;-79
2022/07/30 06:25:46;;;;;;;34.85;31.80;;;;;;;26.40;100.00;100963.31;5112459;28;20047;-82
2022/07/30 06:28:13;;;;;;;33.60;31.17;;;;;;;26.77;100.00;100961.41;5109421;28;20070;-80
2022/07/30 06:30:41;;;;;;;31.90;29.42;;;;;;;26.82;100.00;100953.91;5101018;28;20055;-79
2022/07/30 06:33:08;;;;;;;34.70;31.90;;;;;;;26.78;100.00;100954.81;5110446;28;20044;-82
2022/07/30 06:35:35;;;;;;;33.78;31.20;;;;;;;27.14;100.00;100950.16;5106262;28;20046;-80
2022/07/30 06:38:01;;;;;;;34.90;32.20;;;;;;;27.35;100.00;100952.31;5102809;28;20048;-81
2022/07/30 06:40:28;;;;;;;35.90;33.10;;;;;;;26.94;100.00;100950.63;5096094;28;20052;-80
2022/07/30 06:42:57;;;;;;;33.90;31.20;;;;;;;27.24;100.00;100951.81;5105830;28;20497;-79
2022/07/30 06:45:23;;;;;;;31.88;29.58;;;;;;;27.30;100.00;100939.66;5111045;28;20048;-79
2022/07/30 06:47:50;;;;;;;32.85;30.05;;;;;;;27.55;100.00;100945.53;5110352;28;20406;-81
2022/07/30 06:50:19;;;;;;;31.50;28.67;;;;;;;27.84;100.00;100945.03;5112702;28;20105;-79
2022/07/30 06:52:46;;;;;;;30.17;27.75;;;;;;;28.02;100.00;100932.19;5103172;28;20120;-81
2022/07/30 06:55:13;;;;;;;30.73;28.38;;;;;;;27.86;100.00;100929.94;5120320;28;20054;-79
2022/07/30 06:57:39;;;;;;;36.08;33.58;;;;;;;28.28;100.00;100929.53;5110392;28;20108;-78
2022/07/30 07:00:09;;;;;;;37.78;34.72;;;;;;;28.11;100.00;100921.31;5117477;28;20124;-80
2022/07/30 07:02:38;;;;;;;34.65;31.98;;;;;;;27.89;100.00;100920.31;5112458;27;20112;-79
2022/07/30 07:05:06;;;;;;;34.28;31.88;;;;;;;28.16;100.00;100921.97;5106459;28;20059;-79
2022/07/30 07:07:34;;;;;;;31.80;29.50;;;;;;;28.28;100.00;100924.84;5102108;28;20062;-79
2022/07/30 07:10:01;;;;;;;32.58;30.08;;;;;;;28.67;100.00;100923.13;5086967;28;20075;-78
2022/07/30 07:12:28;;;;;;;30.10;27.80;;;;;;;28.59;100.00;100914.94;5083776;28;20052;-78
2022/07/30 07:14:55;;;;;;;29.33;26.88;;;;;;;28.53;100.00;100914.28;5089257;28;20052;-79
2022/07/30 07:17:23;;;;;;;29.65;27.45;;;;;;;28.68;100.00;100907.53;5090492;28;20047;-80
2022/07/30 07:19:50;;;;;;;29.40;27.40;;;;;;;29.04;100.00;100915.34;5096543;28;20066;-80
2022/07/30 07:22:17;;;;;;;28.48;26.27;;;;;;;29.38;100.00;100906.25;5091778;28;20047;-80
2022/07/30 07:24:44;;;;;;;30.52;28.02;;;;;;;29.21;100.00;100903.59;5088886;28;20058;-79
2022/07/30 07:27:11;;;;;;;28.70;26.48;;;;;;;29.31;100.00;100907.88;5089752;28;20060;-79
2022/07/30 07:29:38;;;;;;;28.00;25.67;;;;;;;29.57;100.00;100900.38;5087451;27;20112;-78
2022/07/30 07:32:05;;;;;;;30.30;27.95;;;;;;;29.94;100.00;100899.84;5088789;28;20052;-80
2022/07/30 07:34:33;;;;;;;29.20;26.77;;;;;;;29.94;100.00;100902.59;5091977;28;20059;-80
2022/07/30 07:37:00;;;;;;;28.05;25.80;;;;;;;29.74;100.00;100912.38;5091942;28;20048;-80
2022/07/30 07:39:27;;;;;;;27.23;24.88;;;;;;;29.78;100.00;100905.13;5089348;28;20048;-79
2022/07/30 07:41:54;;;;;;;28.27;26.08;;;;;;;29.86;100.00;100904.25;5092929;28;20136;-81
2022/07/30 07:44:21;;;;;;;30.65;28.45;;;;;;;30.46;100.00;100910.44;5090553;28;20055;-79
2022/07/30 07:46:48;;;;;;;29.77;27.05;;;;;;;30.60;100.00;100897.25;5090469;28;20041;-78
2022/07/30 07:49:15;;;;;;;33.38;31.00;;;;;;;30.49;97.77;100907.03;5091864;28;20048;-79
2022/07/30 07:51:43;;;;;;;29.83;27.58;;;;;;;30.46;99.39;100904.97;5091349;28;20052;-80
2022/07/30 07:54:10;;;;;;;30.50;28.40;;;;;;;30.28;96.15;100899.63;5090997;28;20055;-81
2022/07/30 07:56:38;;;;;;;30.98;28.75;;;;;;;30.73;91.71;100906.31;5086046;28;20145;-80
2022/07/30 07:59:05;;;;;;;31.10;28.73;;;;;;;30.62;89.17;100899.66;5094109;28;20530;-81
2022/07/30 08:01:32;;;;;;;31.40;28.95;;;;;;;30.88;92.34;100902.97;5091355;28;20412;-79
2022/07/30 08:04:00;;;;;;;29.40;27.40;;;;;;;30.55;90.75;100897.47;5089671;28;20070;-83
2022/07/30 08:06:27;;;;;;;34.85;32.50;;;;;;;30.83;90.73;100883.19;5092092;28;20059;-80
2022/07/30 08:08:55;;;;;;;30.33;28.17;;;;;;;31.30;91.92;100885.56;5097269;28;20066;-78
2022/07/30 08:11:22;;;;;;;29.25;27.05;;;;;;;31.35;88.49;100890.81;5083047;28;20483;-80
2022/07/30 08:13:49;;;;;;;31.40;29.13;;;;;;;31.15;81.40;100893.31;5091212;28;20492;-82
2022/07/30 08:16:15;;;;;;;32.72;30.52;;;;;;;31.25;86.23;100892.06;5090936;28;20052;-80
2022/07/30 08:18:42;;;;;;;34.75;32.42;;;;;;;31.49;86.09;100891.28;5079425;28;20040;-79
2022/07/30 08:21:09;;;;;;;34.50;31.92;;;;;;;31.44;80.20;100889.59;5086325;28;20052;-80
2022/07/30 08:23:36;;;;;;;33.88;31.23;;;;;;;31.61;79.09;100893.22;5088619;28;20040;-79
2022/07/30 08:26:04;;;;;;;35.53;32.92;;;;;;;31.58;74.32;100888.44;5086982;28;20055;-80
2022/07/30 08:28:31;;;;;;;37.20;33.95;;;;;;;31.43;74.81;100887.97;5086803;28;20052;-79
2022/07/30 08:30:58;;;;;;;36.58;34.15;;;;;;;31.53;71.31;100894.97;5089864;28;20066;-78
2022/07/30 08:33:25;;;;;;;36.55;34.03;;;;;;;31.65;72.11;100889.47;5088582;28;20051;-81
2022/07/30 08:35:52;;;;;;;36.67;34.20;;;;;;;31.56;72.04;100880.56;5088492;28;20040;-79
2022/07/30 08:38:19;;;;;;;36.92;34.35;;;;;;;31.88;75.55;100881.53;5088018;28;20466;-79
2022/07/30 08:40:46;;;;;;;38.03;35.50;;;;;;;31.91;69.09;100889.09;5091698;28;20416;-80
2022/07/30 08:43:15;;;;;;;34.13;31.75;;;;;;;31.91;66.32;100880.06;5096877;28;20104;-81
2022/07/30 08:45:43;;;;;;;32.75;30.35;;;;;;;32.03;62.69;100874.53;5088858;28;20048;-79
2022/07/30 08:48:13;;;;;;;31.83;29.40;;;;;;;31.99;64.10;100872.84;5084125;28;20135;-79
2022/07/30 08:50:40;;;;;;;35.50;33.17;;;;;;;32.09;64.30;100875.09;5093341;28;20048;-80
2022/07/30 08:53:08;;;;;;;36.70;33.92;;;;;;;32.45;61.48;100873.41;5081387;28;20383;-79
2022/07/30 08:55:34;;;;;;;34.25;31.75;;;;;;;32.03;60.17;100866.31;5089533;28;20044;-81
2022/07/30 08:58:02;;;;;;;36.60;34.13;;;;;;;32.34;59.00;100867.56;5088788;28;20052;-80
2022/07/30 09:00:30;;;;;;;33.95;31.50;;;;;;;32.67;65.66;100861.81;5094376;28;20060;-82
2022/07/30 09:02:57;;;;;;;35.00;32.60;;;;;;;32.63;61.08;100858.19;5080474;28;20062;-78
2022/07/30 09:05:24;;;;;;;36.42;34.13;;;;;;;32.98;56.88;100846.53;5087235;28;20052;-79
2022/07/30 09:07:51;;;;;;;35.78;33.28;;;;;;;32.61;58.10;100855.78;5084000;28;20064;-82
2022/07/30 09:10:18;;;;;;;39.83;36.83;;;;;;;32.83;53.89;100848.91;5092741;28;20048;-80
2022/07/30 09:12:46;;;;;;;36.13;33.60;;;;;;;33.21;52.26;100847.50;5087045;28;20054;-79
2022/07/30 09:15:15;;;;;;;36.15;33.47;;;;;;;33.16;58.38;100838.69;5088728;28;20052;-81
2022/07/30 09:17:50;;;;;;;43.45;40.53;;;;;;;33.19;54.45;100841.53;5086225;28;20151;-79
2022/07/30 09:20:18;;;;;;;35.13;32.53;;;;;;;33.01;56.80;100834.81;5088114;28;20576;-79
2022/07/30 09:22:47;;;;;;;35.45;32.83;;;;;;;33.21;54.57;100827.44;5092836;28;20382;-80
2022/07/30 09:25:14;;;;;;;38.05;35.28;;;;;;;33.61;53.86;100834.66;5099634;28;20057;-80
2022/07/30 09:27:46;;;;;;;37.15;34.65;;;;;;;33.10;55.94;100818.91;5086620;28;20048;-78
2022/07/30 09:30:13;;;;;;;38.60;35.97;;;;;;;33.47;47.42;100824.13;5089842;28;20043;-81
2022/07/30 09:32:51;;;;;;;35.20;33.00;;;;;;;33.49;47.22;100817.06;5086665;28;20083;-81
2022/07/30 09:35:18;;;;;;;37.13;34.63;;;;;;;33.48;47.89;100804.47;5084605;28;20127;-81
2022/07/30 09:37:45;;;;;;;38.05;35.35;;;;;;;33.75;47.65;100802.72;5094369;28;20472;-80
2022/07/30 09:40:15;;;;;;;37.70;35.13;;;;;;;33.36;52.57;100803.81;5096770;28;20079;-81
2022/07/30 09:42:42;;;;;;;37.97;35.28;;;;;;;33.32;46.10;100805.69;5088695;28;20044;-81
2022/07/30 09:45:11;;;;;;;38.72;35.90;;;;;;;33.73;51.19;100805.03;5088196;28;20049;-80
2022/07/30 09:47:42;;;;;;;38.97;36.05;;;;;;;33.74;50.07;100812.16;5085529;28;20044;-81
2022/07/30 09:50:12;;;;;;;39.03;36.35;;;;;;;33.77;45.01;100805.13;5085242;28;20121;-80
2022/07/30 09:52:43;;;;;;;37.40;34.00;;;;;;;33.73;45.56;100810.53;5077536;28;20063;-79
2022/07/30 09:55:10;;;;;;;35.08;32.67;;;;;;;33.98;44.40;100804.75;5099552;28;20062;-81
2022/07/30 09:57:55;;;;;;;36.83;34.03;;;;;;;34.02;42.45;100799.34;5088371;28;20043;-80
2022/07/30 10:00:25;;;;;;;36.53;33.92;;;;;;;34.03;48.69;100801.75;5092045;28;20077;-81
2022/07/30 10:02:52;;;;;;;38.13;35.58;;;;;;;33.62;49.46;100797.69;5080615;28;20051;-81
2022/07/30 10:05:21;;;;;;;39.25;36.60;;;;;;;33.77;48.33;100788.59;5095645;28;20048;-81
2022/07/30 10:07:50;;;;;;;37.88;35.38;;;;;;;34.49;45.62;100790.78;5096707;28;20110;-82
2022/07/30 10:10:21;;;;;;;39.22;36.42;;;;;;;34.74;42.53;100794.03;5099223;28;20048;-81
2022/07/30 10:12:52;;;;;;;37.22;34.55;;;;;;;34.53;41.33;100786.16;5098956;28;20052;-79
2022/07/30 10:15:20;;;;;;;34.38;31.77;;;;;;;34.51;45.03;100779.41;5090865;28;20048;-81
2022/07/30 10:17:49;;;;;;;31.90;29.60;;;;;;;34.80;40.63;100770.47;5098884;28;20075;-79
2022/07/30 10:20:16;;;;;;;36.75;34.42;;;;;;;35.46;42.72;100768.28;5088583;28;20480;-78
2022/07/30 10:22:44;;;;;;;37.05;34.58;;;;;;;35.04;42.69;100768.47;5095549;28;20048;-79
2022/07/30 10:25:12;;;;;;;39.80;37.25;;;;;;;35.14;44.42;100761.56;5102531;28;20051;-77
2022/07/30 10:27:40;;;;;;;41.20;38.40;;;;;;;34.58;44.62;100754.72;5104682;28;20044;-78
2022/07/30 10:30:08;;;;;;;34.22;31.63;;;;;;;35.06;41.88;100755.91;5088039;28;20123;-80
2022/07/30 10:32:37;;;;;;;40.55;37.95;;;;;;;35.04;40.28;100754.69;5097147;28;20077;-77
2022/07/30 10:35:05;;;;;;;33.47;31.17;;;;;;;34.64;38.76;100744.97;5085426;28;20052;-82
2022/07/30 10:37:34;;;;;;;30.75;28.15;;;;;;;35.64;36.87;100746.47;5091762;28;20047;-80
2022/07/30 10:40:11;;;;;;;30.05;27.65;;;;;;;35.44;37.30;100740.28;5098436;28;20082;-78
2022/07/30 10:43:01;;;;;;;32.25;29.85;;;;;;;35.49;37.29;100734.41;5104631;28;20048;-78
2022/07/30 10:45:43;;;;;;;30.85;28.35;;;;;;;35.75;39.38;100735.56;5098113;28;20052;-79
2022/07/30 10:48:11;;;;;;;32.60;30.30;;;;;;;35.99;37.46;100731.47;5096856;28;20059;-80
2022/07/30 10:50:51;;;;;;;32.42;30.10;;;;;;;36.13;36.76;100741.88;5101514;28;20051;-80
2022/07/30 10:53:33;;;;;;;37.45;34.85;;;;;;;35.69;37.67;100732.31;5101664;28;20079;-78
2022/07/30 10:56:17;;;;;;;31.60;29.50;;;;;;;34.76;43.49;100724.69;5101406;28;20047;-79
2022/07/30 10:59:01;;;;;;;36.08;33.67;;;;;;;35.69;38.77;100715.75;5093119;28;20396;-79
2022/07/30 11:02:01;;;;;;;32.30;30.05;;;;;;;36.01;36.85;100718.09;5094828;28;20058;-78
2022/07/30 11:04:29;;;;;;;31.80;29.70;;;;;;;36.23;40.00;100713.56;5098140;28;20040;-80
2022/07/30 11:07:31;;;;;;;31.13;28.92;;;;;;;36.05;35.76;100709.84;5100529;28;20048;-78
2022/07/30 11:10:00;;;;;;;30.20;28.10;;;;;;;35.98;36.47;100710.56;5090863;28;20377;-77
2022/07/30 11:12:54;;;;;;;32.72;30.25;;;;;;;36.76;36.86;100718.75;5109031;28;20040;-80
2022/07/30 11:15:22;;;;;;;31.52;28.67;;;;;;;36.83;37.46;100707.75;5103515;28;20113;-79
2022/07/30 11:18:09;;;;;;;30.63;28.30;;;;;;;36.22;37.33;100710.03;5106361;28;20136;-80
2022/07/30 11:20:37;;;;;;;33.00;30.70;;;;;;;36.25;36.74;100708.44;5085829;28;20113;-79
2022/07/30 11:23:36;;;;;;;33.40;31.20;;;;;;;35.53;41.77;100706.88;5098234;28;20040;-80
2022/07/30 11:26:03;;;;;;;30.25;28.05;;;;;;;36.43;34.98;100700.28;5115658;28;20053;-80
2022/07/30 11:28:40;;;;;;;30.13;27.83;;;;;;;36.81;35.00;100710.09;5104316;28;20039;-79
2022/07/30 11:31:32;;;;;;;28.88;26.77;;;;;;;36.51;35.33;100693.69;5099378;28;20066;-78
2022/07/30 11:34:27;;;;;;;31.77;29.40;;;;;;;36.04;35.81;100695.25;5075868;28;20059;-81
2022/07/30 11:37:15;;;;;;;31.83;29.67;;;;;;;36.52;35.41;100697.25;5087459;28;20468;-79
2022/07/30 11:40:06;;;;;;;30.90;28.52;;;;;;;36.60;36.29;100682.28;5095950;28;20160;-79
2022/07/30 11:42:35;;;;;;;30.42;28.33;;;;;;;36.81;35.75;100670.59;5092693;28;20043;-79